createdAt,value
2018-02-15T00:01:34.481Z,51.51
2018-02-15T00:04:02.973Z,51.78
2018-02-15T00:06:31.473Z,51.79
2018-02-15T00:08:59.949Z,52.27
2018-02-15T00:11:28.457Z,51.74
2018-02-15T00:13:56.950Z,51.79
2018-02-15T00:16:25.393Z,52.36
2018-02-15T00:18:53.929Z,52.49
2018-02-15T00:21:22.408Z,52.42
2018-02-15T00:23:50.894Z,52.09
2018-02-15T00:26:19.382Z,52.02
2018-02-15T00:28:47.900Z,52.48
2018-02-15T00:31:16.426Z,52.31
2018-02-15T00:33:44.921Z,51.74
2018-02-15T00:36:13.383Z,51.91
2018-02-15T00:38:41.912Z,51.75
2018-02-15T00:41:10.454Z,51.51
2018-02-15T00:43:38.952Z,51.31
2018-02-15T00:46:07.447Z,51.33
2018-02-15T00:48:35.881Z,51.01
2018-02-15T00:51:04.371Z,51.10
2018-02-15T00:53:32.826Z,50.98
2018-02-15T00:56:01.390Z,50.98
2018-02-15T00:58:29.885Z,50.46
2018-02-15T01:00:58.373Z,50.64
2018-02-15T01:03:26.821Z,50.64
2018-02-15T01:05:55.314Z,51.19
2018-02-15T01:08:23.806Z,50.94
2018-02-15T01:10:52.271Z,50.97
2018-02-15T01:13:20.789Z,50.67
2018-02-15T01:15:49.241Z,51.35
2018-02-15T01:18:17.730Z,51.72
2018-02-15T01:20:46.223Z,51.43
2018-02-15T01:23:14.730Z,51.49
2018-02-15T01:25:43.194Z,51.68
2018-02-15T01:28:11.655Z,51.73
2018-02-15T01:30:40.159Z,51.75
2018-02-15T01:33:08.638Z,52.12
2018-02-15T01:35:37.093Z,52.67
2018-02-15T01:38:05.589Z,52.61
2018-02-15T01:40:34.049Z,52.79
2018-02-15T01:43:02.571Z,52.87
2018-02-15T01:45:31.034Z,52.72
2018-02-15T01:47:59.508Z,52.78
2018-02-15T01:50:28.042Z,52.97
2018-02-15T01:52:57.197Z,53.16
2018-02-15T01:55:25.683Z,53.53
2018-02-15T01:57:54.174Z,53.60
2018-02-15T02:00:22.665Z,53.68
2018-02-15T02:02:51.202Z,53.58
2018-02-15T02:05:19.725Z,53.85
2018-02-15T02:07:48.173Z,53.91
2018-02-15T02:10:16.634Z,53.91
2018-02-15T02:12:45.124Z,53.76
2018-02-15T02:15:13.594Z,53.55
2018-02-15T02:17:42.126Z,53.54
2018-02-15T02:20:10.647Z,53.15
2018-02-15T02:22:39.247Z,53.14
2018-02-15T02:25:07.701Z,53.05
2018-02-15T02:27:36.158Z,53.03
2018-02-15T02:30:04.651Z,52.91
2018-02-15T02:32:33.149Z,52.83
2018-02-15T02:35:01.654Z,52.79
2018-02-15T02:37:30.102Z,52.78
2018-02-15T02:39:58.567Z,52.38
2018-02-15T02:42:27.063Z,52.32
2018-02-15T02:44:55.609Z,52.31
2018-02-15T02:47:24.106Z,51.89
2018-02-15T02:49:52.613Z,52.49
2018-02-15T02:52:21.104Z,51.97
2018-02-15T02:54:49.597Z,52.47
2018-02-15T02:57:18.090Z,52.43
2018-02-15T02:59:46.582Z,52.38
2018-02-15T03:02:15.148Z,52.09
2018-02-15T03:04:43.638Z,51.89
2018-02-15T03:07:12.098Z,51.65
2018-02-15T03:09:40.589Z,51.81
2018-02-15T03:12:09.049Z,51.44
2018-02-15T03:14:37.562Z,51.97
2018-02-15T03:17:06.040Z,52.17
2018-02-15T03:19:34.509Z,51.72
2018-02-15T03:22:03.009Z,51.52
2018-02-15T03:24:31.539Z,51.83
2018-02-15T03:26:59.990Z,51.57
2018-02-15T03:29:28.462Z,51.74
2018-02-15T03:31:56.959Z,51.92
2018-02-15T03:34:25.478Z,51.93
2018-02-15T03:36:53.947Z,51.46
2018-02-15T03:39:22.429Z,51.58
2018-02-15T03:41:50.922Z,51.66
2018-02-15T03:44:19.381Z,51.61
2018-02-15T03:46:47.859Z,51.57
2018-02-15T03:49:16.365Z,52.06
2018-02-15T03:51:44.865Z,52.07
2018-02-15T03:54:13.326Z,51.93
2018-02-15T03:56:41.825Z,52.45
2018-02-15T03:59:10.333Z,52.67
2018-02-15T04:01:38.829Z,53.46
2018-02-15T04:04:07.350Z,52.92
2018-02-15T04:06:35.845Z,52.29
2018-02-15T04:09:04.338Z,52.58
2018-02-15T04:11:32.873Z,52.96
2018-02-15T04:14:01.380Z,52.66
2018-02-15T04:16:29.889Z,53.08
2018-02-15T04:18:58.353Z,53.13
2018-02-15T04:21:26.845Z,53.18
2018-02-15T04:23:55.329Z,53.84
2018-02-15T04:26:23.819Z,53.23
2018-02-15T04:28:52.309Z,53.80
2018-02-15T04:31:20.774Z,53.97
2018-02-15T04:33:49.309Z,54.11
2018-02-15T04:36:17.769Z,53.98
2018-02-15T04:38:46.268Z,53.86
2018-02-15T04:41:14.717Z,54.28
2018-02-15T04:43:43.224Z,54.29
2018-02-15T04:46:11.679Z,54.54
2018-02-15T04:48:40.178Z,54.24
2018-02-15T04:51:08.682Z,54.08
2018-02-15T04:53:37.174Z,53.85
2018-02-15T04:56:05.643Z,53.81
2018-02-15T04:58:34.137Z,53.82
2018-02-15T05:01:02.596Z,53.44
2018-02-15T05:03:31.090Z,54.29
2018-02-15T05:05:59.558Z,53.79
2018-02-15T05:08:28.070Z,54.02
2018-02-15T05:10:56.542Z,53.34
2018-02-15T05:13:25.038Z,53.38
2018-02-15T05:15:53.543Z,53.29
2018-02-15T05:18:21.992Z,52.87
2018-02-15T05:20:50.493Z,53.48
2018-02-15T05:23:18.946Z,53.07
2018-02-15T05:25:47.437Z,52.94
2018-02-15T05:28:15.916Z,52.93
2018-02-15T05:30:44.399Z,52.79
2018-02-15T05:33:12.901Z,52.66
2018-02-15T05:35:41.405Z,52.95
2018-02-15T05:38:09.917Z,52.45
2018-02-15T05:40:38.393Z,52.71
2018-02-15T05:43:06.924Z,52.52
2018-02-15T05:45:35.421Z,52.28
2018-02-15T05:48:03.916Z,52.18
2018-02-15T05:50:32.416Z,52.67
2018-02-15T05:53:00.873Z,52.32
2018-02-15T05:55:29.385Z,52.45
2018-02-15T05:57:57.842Z,51.59
2018-02-15T06:00:26.365Z,51.77
2018-02-15T06:02:54.839Z,51.85
2018-02-15T06:05:23.354Z,51.46
2018-02-15T06:07:51.813Z,51.27
2018-02-15T06:10:20.281Z,51.03
2018-02-15T06:12:48.785Z,50.89
2018-02-15T06:15:17.296Z,50.43
2018-02-15T06:17:45.819Z,50.14
2018-02-15T06:20:14.458Z,49.89
2018-02-15T06:22:42.976Z,49.66
2018-02-15T06:25:11.463Z,49.01
2018-02-15T06:27:41.057Z,48.96
2018-02-15T06:30:09.557Z,48.78
2018-02-15T06:32:38.022Z,48.01
2018-02-15T06:35:06.533Z,48.65
2018-02-15T06:37:34.998Z,47.85
2018-02-15T06:40:03.492Z,47.61
2018-02-15T06:42:32.006Z,47.58
2018-02-15T06:45:00.474Z,46.90
2018-02-15T06:47:28.995Z,46.32
2018-02-15T06:49:57.453Z,46.39
2018-02-15T06:52:25.984Z,46.44
2018-02-15T06:54:54.458Z,46.24
2018-02-15T06:57:22.964Z,45.77
2018-02-15T06:59:51.469Z,45.12
2018-02-15T07:02:19.946Z,45.44
2018-02-15T07:04:48.490Z,45.19
2018-02-15T07:07:17.003Z,44.46
2018-02-15T07:09:45.501Z,44.83
2018-02-15T07:12:14.010Z,44.02
2018-02-15T07:14:42.473Z,44.61
2018-02-15T07:17:10.961Z,44.80
2018-02-15T07:19:39.469Z,44.20
2018-02-15T07:22:07.949Z,44.23
2018-02-15T07:24:36.447Z,44.20
2018-02-15T07:27:04.938Z,43.71
2018-02-15T07:29:33.413Z,43.73
2018-02-15T07:32:01.898Z,44.21
2018-02-15T07:34:30.385Z,43.78
2018-02-15T07:36:58.846Z,43.50
2018-02-15T07:39:27.412Z,43.94
2018-02-15T07:41:55.923Z,43.58
2018-02-15T07:44:24.406Z,43.50
2018-02-15T07:46:52.927Z,43.39
2018-02-15T07:49:21.409Z,43.13
2018-02-15T07:51:49.905Z,43.63
2018-02-15T07:54:18.434Z,44.03
2018-02-15T07:56:46.986Z,43.18
2018-02-15T07:59:15.465Z,43.67
2018-02-15T08:01:43.962Z,43.79
2018-02-15T08:04:12.465Z,44.02
2018-02-15T08:06:41.824Z,43.07
2018-02-15T08:09:10.321Z,43.85
2018-02-15T08:11:38.773Z,42.85
2018-02-15T08:14:07.282Z,43.00
2018-02-15T08:16:35.761Z,43.41
2018-02-15T08:19:04.219Z,43.49
2018-02-15T08:21:32.706Z,43.72
2018-02-15T08:24:01.204Z,43.38
2018-02-15T08:26:29.669Z,43.92
2018-02-15T08:28:58.174Z,43.55
2018-02-15T08:31:26.634Z,42.74
2018-02-15T08:33:55.098Z,43.77
2018-02-15T08:36:23.621Z,43.39
2018-02-15T08:38:52.078Z,42.93
2018-02-15T08:41:20.588Z,43.13
2018-02-15T08:43:49.089Z,42.45
2018-02-15T08:46:17.576Z,42.96
2018-02-15T08:48:46.037Z,43.21
2018-02-15T08:51:14.541Z,43.01
2018-02-15T08:53:43.000Z,43.20
2018-02-15T08:56:11.489Z,42.56
2018-02-15T08:58:39.963Z,42.94
2018-02-15T09:01:08.465Z,43.29
2018-02-15T09:03:36.997Z,42.81
2018-02-15T09:06:05.465Z,41.92
2018-02-15T09:08:34.046Z,41.53
2018-02-15T09:11:02.536Z,41.54
2018-02-15T09:13:31.038Z,41.39
2018-02-15T09:15:59.538Z,41.01
2018-02-15T09:18:28.023Z,40.47
2018-02-15T09:20:56.526Z,40.49
2018-02-15T09:23:24.996Z,40.94
2018-02-15T09:25:53.513Z,39.78
2018-02-15T09:28:21.969Z,41.12
2018-02-15T09:30:50.468Z,40.51
2018-02-15T09:33:18.945Z,40.09
2018-02-15T09:35:47.446Z,40.54
2018-02-15T09:38:15.905Z,40.83
2018-02-15T09:40:44.425Z,40.18
2018-02-15T09:43:12.889Z,39.79
2018-02-15T09:45:41.374Z,39.92
2018-02-15T09:48:09.860Z,39.95
2018-02-15T09:50:38.323Z,39.53
2018-02-15T09:53:06.825Z,38.76
2018-02-15T09:55:35.373Z,39.32
2018-02-15T09:58:03.913Z,39.75
2018-02-15T10:00:32.473Z,39.51
2018-02-15T10:03:00.930Z,40.68
2018-02-15T10:05:29.760Z,39.65
2018-02-15T10:07:58.220Z,38.96
2018-02-15T10:10:26.720Z,38.48
2018-02-15T10:12:55.217Z,38.37
2018-02-15T10:15:23.658Z,40.01
2018-02-15T10:17:52.154Z,39.11
2018-02-15T10:20:20.671Z,38.03
2018-02-15T10:22:49.235Z,37.90
2018-02-15T10:25:17.710Z,38.55
2018-02-15T10:27:46.249Z,38.72
2018-02-15T10:30:14.714Z,38.32
2018-02-15T10:32:43.262Z,38.02
2018-02-15T10:35:11.722Z,37.89
2018-02-15T10:37:40.253Z,37.96
2018-02-15T10:40:08.723Z,37.65
2018-02-15T10:42:37.194Z,37.67
2018-02-15T10:45:05.708Z,38.25
2018-02-15T10:47:34.185Z,38.29
2018-02-15T10:50:02.725Z,38.50
2018-02-15T10:52:31.230Z,38.02
2018-02-15T10:54:59.697Z,37.47
2018-02-15T10:57:28.214Z,37.78
2018-02-15T10:59:56.716Z,38.11
2018-02-15T11:02:25.215Z,37.25
2018-02-15T11:04:59.215Z,37.95
2018-02-15T11:07:27.726Z,38.26
2018-02-15T11:09:56.225Z,38.40
2018-02-15T11:12:24.734Z,38.22
2018-02-15T11:14:53.241Z,38.01
2018-02-15T11:17:21.750Z,37.98
2018-02-15T11:19:50.214Z,38.54
2018-02-15T11:22:18.718Z,38.49
2018-02-15T11:24:47.227Z,39.24
2018-02-15T11:27:15.738Z,37.93
2018-02-15T11:29:44.289Z,38.50
2018-02-15T11:32:12.807Z,38.45
2018-02-15T11:34:41.365Z,38.08
2018-02-15T11:37:09.838Z,37.10
2018-02-15T11:39:38.363Z,36.32
2018-02-15T11:42:06.830Z,35.82
2018-02-15T11:44:35.317Z,35.86
2018-02-15T11:47:03.779Z,36.24
2018-02-15T11:49:32.274Z,35.86
2018-02-15T11:52:00.714Z,36.27
2018-02-15T11:54:29.205Z,36.72
2018-02-15T11:56:57.658Z,36.53
2018-02-15T11:59:26.209Z,36.84
2018-02-15T12:01:54.712Z,37.09
2018-02-15T12:04:23.192Z,37.11
2018-02-15T12:06:51.728Z,36.99
2018-02-15T12:09:20.203Z,37.19
2018-02-15T12:11:48.739Z,37.17
2018-02-15T12:14:17.262Z,37.41
2018-02-15T12:16:45.735Z,37.27
2018-02-15T12:19:14.246Z,37.70
2018-02-15T12:21:42.765Z,36.53
2018-02-15T12:24:11.325Z,35.64
2018-02-15T12:26:39.826Z,36.69
2018-02-15T12:29:08.312Z,37.63
2018-02-15T12:31:36.813Z,36.89
2018-02-15T12:34:05.298Z,37.06
2018-02-15T12:36:33.801Z,36.14
2018-02-15T12:39:02.339Z,36.78
2018-02-15T12:41:30.849Z,37.29
2018-02-15T12:43:59.404Z,37.07
2018-02-15T12:46:27.875Z,37.04
2018-02-15T12:48:56.331Z,36.85
2018-02-15T12:51:24.853Z,36.92
2018-02-15T12:53:53.313Z,37.15
2018-02-15T12:56:21.815Z,36.69
2018-02-15T12:58:50.277Z,36.64
2018-02-15T13:01:18.753Z,36.47
2018-02-15T13:03:47.274Z,36.11
2018-02-15T13:06:15.865Z,36.00
2018-02-15T13:08:44.379Z,36.17
2018-02-15T13:11:12.853Z,36.20
2018-02-15T13:13:41.382Z,35.36
2018-02-15T13:16:21.462Z,35.08
2018-02-15T13:21:50.909Z,35.10
2018-02-15T13:24:19.456Z,34.90
2018-02-15T13:26:48.035Z,35.10
2018-02-15T13:29:16.717Z,35.38
2018-02-15T13:31:45.193Z,35.67
2018-02-15T13:34:13.793Z,35.57
2018-02-15T13:36:42.284Z,35.56
2018-02-15T13:39:10.849Z,35.53
2018-02-15T13:41:39.435Z,35.24
2018-02-15T13:44:08.040Z,35.73
2018-02-15T13:46:36.662Z,35.76
2018-02-15T13:49:05.174Z,34.99
2018-02-15T13:51:33.647Z,35.43
2018-02-15T13:54:02.174Z,35.73
2018-02-15T13:56:30.645Z,35.03
2018-02-15T13:58:59.260Z,35.08
2018-02-15T14:01:27.743Z,35.65
2018-02-15T14:03:56.240Z,35.68
2018-02-15T14:06:24.725Z,35.17
2018-02-15T14:08:53.230Z,35.59
2018-02-15T14:11:21.750Z,35.77
2018-02-15T14:13:50.258Z,35.34
2018-02-15T14:16:18.734Z,35.42
2018-02-15T14:18:47.258Z,34.95
2018-02-15T14:21:15.729Z,35.46
2018-02-15T14:23:44.195Z,35.77
2018-02-15T14:26:12.685Z,36.23
2018-02-15T14:28:41.178Z,36.52
2018-02-15T14:31:09.653Z,35.91
2018-02-15T14:33:38.157Z,35.92
2018-02-15T14:36:06.668Z,35.67
2018-02-15T14:38:35.186Z,34.55
2018-02-15T14:41:03.709Z,36.33
2018-02-15T14:43:32.171Z,35.49
2018-02-15T14:46:00.682Z,36.45
2018-02-15T14:48:29.216Z,36.82
2018-02-15T14:50:57.739Z,36.59
2018-02-15T14:53:26.250Z,36.97
2018-02-15T14:55:54.754Z,37.11
2018-02-15T14:58:23.261Z,37.21
2018-02-15T15:00:51.731Z,37.16
2018-02-15T15:03:20.229Z,37.25
2018-02-15T15:05:48.689Z,37.00
2018-02-15T15:08:17.198Z,37.59
2018-02-15T15:10:45.735Z,36.96
2018-02-15T15:13:14.206Z,37.62
2018-02-15T15:15:42.724Z,37.69
2018-02-15T15:18:11.210Z,37.10
2018-02-15T15:20:39.739Z,37.84
2018-02-15T15:23:08.218Z,37.35
2018-02-15T15:25:36.730Z,37.92
2018-02-15T15:28:05.192Z,37.90
2018-02-15T15:30:33.727Z,38.32
2018-02-15T15:33:02.208Z,38.44
2018-02-15T15:35:31.105Z,38.46
2018-02-15T15:37:59.606Z,38.38
2018-02-15T15:40:28.070Z,38.64
2018-02-15T15:42:56.570Z,38.81
2018-02-15T15:45:25.090Z,38.71
2018-02-15T15:47:53.598Z,38.67
2018-02-15T15:50:22.061Z,38.86
2018-02-15T15:52:50.561Z,38.76
2018-02-15T15:55:19.026Z,38.82
2018-02-15T15:57:47.563Z,38.92
2018-02-15T16:00:16.070Z,39.21
2018-02-15T16:02:44.547Z,39.31
2018-02-15T16:05:12.991Z,39.48
2018-02-15T16:07:41.493Z,39.69
2018-02-15T16:10:09.950Z,39.70
2018-02-15T16:12:38.421Z,39.96
2018-02-15T16:15:06.949Z,40.08
2018-02-15T16:17:35.422Z,40.31
2018-02-15T16:20:03.953Z,40.58
2018-02-15T16:22:32.440Z,40.62
2018-02-15T16:25:00.945Z,41.05
2018-02-15T16:27:29.456Z,41.27
2018-02-15T16:29:57.960Z,41.28
2018-02-15T16:32:26.473Z,41.43
2018-02-15T16:34:54.942Z,41.31
2018-02-15T16:37:23.442Z,41.54
2018-02-15T16:39:51.914Z,41.25
2018-02-15T16:42:20.430Z,41.37
2018-02-15T16:44:48.878Z,41.24
2018-02-15T16:47:17.348Z,41.32
2018-02-15T16:49:45.849Z,41.38
2018-02-15T16:52:14.323Z,41.44
2018-02-15T16:54:42.829Z,41.36
2018-02-15T16:57:11.318Z,41.38
2018-02-15T16:59:39.818Z,41.35
2018-02-15T17:02:08.316Z,41.35
2018-02-15T17:04:36.781Z,41.55
2018-02-15T17:07:05.299Z,41.85
2018-02-15T17:09:33.779Z,41.74
2018-02-15T17:12:02.288Z,41.78
2018-02-15T17:14:30.786Z,42.40
2018-02-15T17:16:59.256Z,42.18
2018-02-15T17:19:27.764Z,42.22
2018-02-15T17:21:56.265Z,42.51
2018-02-15T17:24:24.761Z,42.93
2018-02-15T17:26:53.270Z,42.83
2018-02-15T17:29:21.730Z,42.89
2018-02-15T17:31:50.252Z,43.12
2018-02-15T17:34:18.711Z,42.98
2018-02-15T17:36:47.169Z,43.27
2018-02-15T17:39:15.677Z,43.33
2018-02-15T17:41:44.192Z,43.28
2018-02-15T17:44:12.663Z,43.18
2018-02-15T17:46:41.158Z,43.09
2018-02-15T17:49:09.632Z,43.53
2018-02-15T17:51:38.148Z,43.38
2018-02-15T17:54:06.657Z,43.29
2018-02-15T17:56:35.170Z,43.51
2018-02-15T17:59:03.666Z,43.59
2018-02-15T18:01:32.205Z,43.68
2018-02-15T18:04:00.709Z,43.79
2018-02-15T18:06:29.214Z,44.08
2018-02-15T18:08:57.767Z,44.14
2018-02-15T18:11:26.267Z,43.95
2018-02-15T18:13:54.766Z,44.34
2018-02-15T18:16:23.272Z,44.77
2018-02-15T18:18:51.741Z,44.31
2018-02-15T18:21:20.235Z,44.68
2018-02-15T18:23:48.733Z,44.46
2018-02-15T18:26:17.257Z,44.69
2018-02-15T18:28:45.730Z,44.59
2018-02-15T18:31:14.229Z,44.61
2018-02-15T18:33:42.695Z,44.61
2018-02-15T18:36:11.197Z,45.10
2018-02-15T18:38:39.657Z,45.17
2018-02-15T18:41:08.176Z,45.16
2018-02-15T18:43:36.673Z,45.80
2018-02-15T18:46:05.173Z,45.61
2018-02-15T18:48:33.650Z,46.01
2018-02-15T18:51:02.173Z,45.88
2018-02-15T18:53:30.641Z,46.22
2018-02-15T18:55:59.149Z,46.00
2018-02-15T18:58:27.642Z,46.19
2018-02-15T19:00:56.101Z,46.85
2018-02-15T19:03:24.602Z,46.99
2018-02-15T19:05:53.075Z,46.83
2018-02-15T19:08:21.569Z,46.76
2018-02-15T19:10:50.069Z,47.15
2018-02-15T19:13:18.578Z,46.95
2018-02-15T19:15:47.077Z,47.13
2018-02-15T19:18:15.565Z,47.62
2018-02-15T19:20:44.082Z,47.54
2018-02-15T19:23:12.546Z,47.45
2018-02-15T19:25:41.046Z,47.44
2018-02-15T19:28:09.509Z,47.64
2018-02-15T19:30:38.006Z,47.57
2018-02-15T19:33:06.505Z,47.82
2018-02-15T19:35:35.020Z,47.43
2018-02-15T19:38:03.494Z,47.26
2018-02-15T19:40:31.994Z,46.88
2018-02-15T19:43:00.483Z,47.02
2018-02-15T19:45:28.986Z,47.43
2018-02-15T19:47:57.804Z,46.73
2018-02-15T19:50:26.310Z,47.08
2018-02-15T19:52:54.765Z,46.67
2018-02-15T19:55:23.283Z,46.34
2018-02-15T19:57:51.770Z,46.07
2018-02-15T20:00:20.250Z,46.49
2018-02-15T20:02:48.794Z,46.28
2018-02-15T20:05:17.286Z,46.41
2018-02-15T20:07:45.919Z,46.59
2018-02-15T20:10:14.293Z,46.54
2018-02-15T20:12:42.797Z,46.66
2018-02-15T20:15:11.258Z,46.42
2018-02-15T20:17:39.755Z,46.94
2018-02-15T20:20:13.827Z,46.80
2018-02-15T20:22:42.325Z,46.78
2018-02-15T20:25:10.789Z,46.28
2018-02-15T20:27:44.928Z,46.41
2018-02-15T20:30:13.395Z,46.68
2018-02-15T20:32:41.866Z,46.28
2018-02-15T20:35:10.369Z,46.30
2018-02-15T20:37:44.325Z,46.55
2018-02-15T20:40:18.332Z,46.54
2018-02-15T20:42:46.797Z,47.23
2018-02-15T20:45:15.301Z,47.32
2018-02-15T20:47:43.781Z,47.59
2018-02-15T20:50:17.677Z,47.21
2018-02-15T20:52:51.581Z,47.16
2018-02-15T20:55:25.649Z,47.41
2018-02-15T20:57:54.180Z,47.45
2018-02-15T21:00:22.677Z,47.63
2018-02-15T21:02:51.182Z,47.82
2018-02-15T21:05:19.699Z,47.76
2018-02-15T21:07:48.177Z,48.07
2018-02-15T21:10:16.638Z,48.32
2018-02-15T21:12:45.141Z,47.85
2018-02-15T21:15:13.688Z,48.09
2018-02-15T21:17:42.176Z,47.91
2018-02-15T21:20:10.669Z,48.24
2018-02-15T21:22:39.150Z,48.26
2018-02-15T21:25:07.650Z,48.24
2018-02-15T21:27:36.141Z,48.36
2018-02-15T21:30:04.646Z,48.46
2018-02-15T21:32:33.168Z,48.26
2018-02-15T21:35:01.669Z,48.75
2018-02-15T21:37:30.181Z,48.62
2018-02-15T21:39:58.672Z,48.38
2018-02-15T21:42:27.181Z,48.52
2018-02-15T21:44:55.653Z,48.50
2018-02-15T21:47:24.157Z,47.96
2018-02-15T21:49:52.662Z,47.88
2018-02-15T21:52:21.127Z,47.94
2018-02-15T21:54:49.642Z,47.91
2018-02-15T21:57:18.128Z,47.58
2018-02-15T21:59:46.643Z,47.12
2018-02-15T22:02:15.110Z,47.49
2018-02-15T22:04:43.635Z,47.24
2018-02-15T22:07:12.136Z,47.09
2018-02-15T22:09:40.596Z,46.94
2018-02-15T22:12:09.109Z,46.96
2018-02-15T22:14:37.574Z,47.04
2018-02-15T22:17:06.074Z,46.92
2018-02-15T22:19:34.574Z,46.74
2018-02-15T22:22:03.069Z,46.87
2018-02-15T22:24:31.541Z,46.72
2018-02-15T22:27:00.046Z,46.84
2018-02-15T22:29:28.537Z,46.73
2018-02-15T22:31:57.037Z,46.67
2018-02-15T22:34:25.505Z,46.65
2018-02-15T22:36:54.001Z,46.71
2018-02-15T22:39:22.477Z,46.78
2018-02-15T22:41:50.977Z,46.99
2018-02-15T22:44:19.478Z,47.08
2018-02-15T22:46:47.981Z,47.34
2018-02-15T22:49:16.445Z,47.84
2018-02-15T22:51:44.922Z,47.78
2018-02-15T22:54:13.421Z,47.73
2018-02-15T22:56:41.962Z,48.02
2018-02-15T22:59:10.449Z,48.63
2018-02-15T23:01:38.946Z,49.09
2018-02-15T23:04:07.405Z,49.50
2018-02-15T23:06:35.890Z,49.61
2018-02-15T23:09:04.454Z,49.73
2018-02-15T23:11:32.967Z,50.66
2018-02-15T23:14:01.438Z,50.41
2018-02-15T23:16:29.994Z,50.64
2018-02-15T23:18:58.470Z,51.04
2018-02-15T23:21:26.924Z,50.99
2018-02-15T23:23:55.422Z,50.84
2018-02-15T23:26:23.885Z,51.20
2018-02-15T23:28:52.414Z,51.49
2018-02-15T23:31:20.930Z,51.72
2018-02-15T23:33:49.421Z,51.65
2018-02-15T23:36:17.915Z,51.44
2018-02-15T23:38:46.424Z,52.50
2018-02-15T23:41:14.881Z,52.21
2018-02-15T23:43:43.383Z,52.40
2018-02-15T23:46:11.846Z,53.07
2018-02-15T23:48:40.381Z,53.30
2018-02-15T23:51:08.868Z,53.22
2018-02-15T23:53:37.378Z,52.73
2018-02-15T23:56:05.853Z,52.27
2018-02-15T23:58:34.366Z,51.78
